TAF Text Data
IDs:
Format:
Raw Decoded Include METAR

Data at: 1227 UTC 26 Feb 2021

KLAL 261120Z 2612/2712 VRB03KT P6SM FEW040
  FM261500 13006KT P6SM FEW040
  FM261900 17005KT P6SM SKC
  FM270100 VRB03KT P6SM FEW030